Time;durP1;ratioP1;P1;durP2;ratioP2;P2;SDS_P1;SDS_P2;PMS_P1;PMS_P2;Temp;Humidity;BMP_temperature;BMP_pressure;BME280_temperature;BME280_humidity;BME280_pressure;Samples;Min_cycle;Max_cycle;Signal;HPM_P1;HPM_P2
2022/09/15 00:00:52;;;;;;;3.15;0.82;;;;;;;;;;7392984;19;19999;-80
2022/09/15 00:03:18;;;;;;;1.92;1.00;;;;;;;;;;7392704;19;20288;-80
2022/09/15 00:05:44;;;;;;;1.08;0.75;;;;;;;;;;7395669;19;20718;-80
2022/09/15 00:08:11;;;;;;;1.92;0.82;;;;;;;;;;7395806;19;20011;-80
2022/09/15 00:10:38;;;;;;;1.25;0.70;;;;;;;;;;7391463;19;20599;-79
2022/09/15 00:13:04;;;;;;;1.67;0.70;;;;;;;;;;7389664;19;20065;-80
2022/09/15 00:15:29;;;;;;;1.17;0.80;;;;;;;;;;7395730;19;20011;-79
2022/09/15 00:17:54;;;;;;;0.80;0.68;;;;;;;;;;7390928;19;20010;-79
2022/09/15 00:20:21;;;;;;;1.80;0.70;;;;;;;;;;7392424;19;20007;-80
2022/09/15 00:22:47;;;;;;;3.33;0.70;;;;;;;;;;7392600;19;19998;-80
2022/09/15 00:25:13;;;;;;;1.90;0.82;;;;;;;;;;7397929;19;20019;-80
2022/09/15 00:27:39;;;;;;;3.83;1.00;;;;;;;;;;7391384;19;20455;-81
2022/09/15 00:30:06;;;;;;;1.10;0.63;;;;;;;;;;7395853;19;20002;-80
2022/09/15 00:32:32;;;;;;;1.38;0.90;;;;;;;;;;7393175;19;20002;-81
2022/09/15 00:34:57;;;;;;;3.63;0.82;;;;;;;;;;7393077;19;20002;-79
2022/09/15 00:37:22;;;;;;;2.08;0.70;;;;;;;;;;7392272;19;20019;-81
2022/09/15 00:39:48;;;;;;;1.05;0.70;;;;;;;;;;7392997;19;20454;-80
2022/09/15 00:42:15;;;;;;;2.08;0.70;;;;;;;;;;7396060;19;20003;-80
2022/09/15 00:44:48;;;;;;;2.03;0.80;;;;;;;;;;7394256;19;20046;-81
2022/09/15 00:47:14;;;;;;;1.02;0.70;;;;;;;;;;7395408;19;19991;-81
2022/09/15 00:49:41;;;;;;;1.67;0.82;;;;;;;;;;7393545;19;20350;-80
2022/09/15 00:52:18;;;;;;;1.23;0.82;;;;;;;;;;7393823;19;20017;-81
2022/09/15 00:54:56;;;;;;;1.75;0.73;;;;;;;;;;7393663;19;20014;-81
2022/09/15 00:57:44;;;;;;;2.17;0.57;;;;;;;;;;7397639;19;20010;-80
2022/09/15 01:00:15;;;;;;;4.53;1.15;;;;;;;;;;7399769;19;20051;-81
2022/09/15 01:02:43;;;;;;;0.98;0.82;;;;;;;;;;7399785;19;20601;-80
2022/09/15 01:05:11;;;;;;;1.50;0.77;;;;;;;;;;7400635;19;20006;-79
2022/09/15 01:07:53;;;;;;;0.70;0.60;;;;;;;;;;7398960;19;20014;-80
2022/09/15 01:10:18;;;;;;;2.58;0.65;;;;;;;;;;7398526;19;20009;-80
2022/09/15 01:12:44;;;;;;;3.10;0.70;;;;;;;;;;7401081;19;20015;-80
2022/09/15 01:15:10;;;;;;;1.38;0.88;;;;;;;;;;7397313;19;20063;-80
2022/09/15 01:18:19;;;;;;;1.63;0.73;;;;;;;;;;7397674;19;20018;-80
2022/09/15 01:21:05;;;;;;;2.45;0.60;;;;;;;;;;7395201;19;20528;-79
2022/09/15 01:23:49;;;;;;;1.40;0.85;;;;;;;;;;7400997;19;19998;-79
2022/09/15 01:26:45;;;;;;;1.02;0.80;;;;;;;;;;7398937;19;20037;-79
2022/09/15 01:29:48;;;;;;;0.70;0.63;;;;;;;;;;7395429;19;20078;-79
2022/09/15 01:33:05;;;;;;;1.55;0.60;;;;;;;;;;7398350;19;20010;-79
2022/09/15 01:35:39;;;;;;;0.98;0.60;;;;;;;;;;7398056;19;20482;-79
2022/09/15 01:38:13;;;;;;;1.85;0.60;;;;;;;;;;7396649;19;20078;-79
2022/09/15 01:40:48;;;;;;;0.50;0.50;;;;;;;;;;7398058;19;20010;-79
2022/09/15 01:43:16;;;;;;;1.02;0.65;;;;;;;;;;7396891;19;20030;-79
2022/09/15 01:45:45;;;;;;;1.83;0.73;;;;;;;;;;7398207;19;20116;-79
2022/09/15 01:48:10;;;;;;;1.20;0.70;;;;;;;;;;7394524;19;20018;-78
2022/09/15 01:50:43;;;;;;;3.83;0.90;;;;;;;;;;7396906;19;20003;-79
2022/09/15 01:53:13;;;;;;;8.07;0.75;;;;;;;;;;7395940;19;20084;-79
2022/09/15 01:55:49;;;;;;;0.85;0.60;;;;;;;;;;7399468;19;20047;-79
2022/09/15 01:58:15;;;;;;;1.15;0.60;;;;;;;;;;7393639;19;20448;-80
2022/09/15 02:00:44;;;;;;;4.78;0.88;;;;;;;;;;7399629;19;20003;-79
2022/09/15 02:03:49;;;;;;;0.55;0.55;;;;;;;;;;7396253;19;20104;-80
2022/09/15 02:06:23;;;;;;;3.00;0.93;;;;;;;;;;7396310;19;20013;-81
2022/09/15 02:08:56;;;;;;;1.33;0.57;;;;;;;;;;7390288;19;19998;-80
2022/09/15 02:11:25;;;;;;;6.47;0.75;;;;;;;;;;7396686;19;20058;-79
2022/09/15 02:14:12;;;;;;;1.42;0.65;;;;;;;;;;7394391;19;20018;-79
2022/09/15 02:16:42;;;;;;;2.10;1.00;;;;;;;;;;7395240;19;20062;-79
2022/09/15 02:19:10;;;;;;;2.30;0.68;;;;;;;;;;7392493;19;20026;-79
2022/09/15 02:22:00;;;;;;;1.48;0.73;;;;;;;;;;7398077;19;20014;-79
2022/09/15 02:24:31;;;;;;;1.63;0.82;;;;;;;;;;7397205;19;20014;-79
2022/09/15 02:26:58;;;;;;;1.35;0.80;;;;;;;;;;7396900;19;20014;-79
2022/09/15 02:29:26;;;;;;;4.78;0.80;;;;;;;;;;7392731;19;20462;-79
2022/09/15 02:31:55;;;;;;;2.85;0.70;;;;;;;;;;7392948;19;20435;-78
2022/09/15 02:34:25;;;;;;;3.35;0.88;;;;;;;;;;7393361;19;20005;-78
2022/09/15 02:36:52;;;;;;;0.60;0.40;;;;;;;;;;7392942;19;20010;-78
2022/09/15 02:39:21;;;;;;;3.83;0.77;;;;;;;;;;7396357;19;20058;-79
2022/09/15 02:41:47;;;;;;;1.60;0.77;;;;;;;;;;7392435;19;20086;-78
2022/09/15 02:44:13;;;;;;;1.52;0.88;;;;;;;;;;7393799;19;20009;-79
2022/09/15 02:46:39;;;;;;;5.85;1.17;;;;;;;;;;7394786;19;19998;-79
2022/09/15 02:49:04;;;;;;;2.65;0.68;;;;;;;;;;7393154;19;20016;-79
2022/09/15 02:51:30;;;;;;;2.75;0.90;;;;;;;;;;7393873;19;20003;-79
2022/09/15 02:53:55;;;;;;;1.02;0.73;;;;;;;;;;7394836;19;20014;-79
2022/09/15 02:56:21;;;;;;;3.30;1.05;;;;;;;;;;7392390;19;20003;-77
2022/09/15 02:58:46;;;;;;;2.50;0.70;;;;;;;;;;7390608;19;20076;-77
2022/09/15 03:01:16;;;;;;;0.60;0.60;;;;;;;;;;7394930;19;20007;-76
2022/09/15 03:03:45;;;;;;;2.80;0.68;;;;;;;;;;7391704;19;20018;-77
2022/09/15 03:06:19;;;;;;;2.65;0.80;;;;;;;;;;7390073;19;20456;-77
2022/09/15 03:08:53;;;;;;;1.85;0.93;;;;;;;;;;7393920;19;20006;-78
2022/09/15 03:11:22;;;;;;;5.30;0.88;;;;;;;;;;7392106;19;20011;-78
2022/09/15 03:13:52;;;;;;;1.88;0.70;;;;;;;;;;7393841;19;20011;-78
2022/09/15 03:16:17;;;;;;;4.20;0.90;;;;;;;;;;7395492;19;20006;-78
2022/09/15 03:18:43;;;;;;;1.55;0.70;;;;;;;;;;7391056;19;20039;-74
2022/09/15 03:21:12;;;;;;;4.20;1.00;;;;;;;;;;7389708;19;21085;-75
2022/09/15 03:23:37;;;;;;;1.70;0.60;;;;;;;;;;7391690;19;20018;-74
2022/09/15 03:26:03;;;;;;;0.65;0.60;;;;;;;;;;7391912;19;20475;-74
2022/09/15 03:28:29;;;;;;;1.20;0.57;;;;;;;;;;7390312;19;20015;-74
2022/09/15 03:30:54;;;;;;;0.73;0.50;;;;;;;;;;7392128;19;20143;-74
2022/09/15 03:33:21;;;;;;;1.00;0.75;;;;;;;;;;7393691;19;20005;-74
2022/09/15 03:35:49;;;;;;;2.17;0.80;;;;;;;;;;7392747;19;20403;-74
2022/09/15 03:38:15;;;;;;;1.80;0.90;;;;;;;;;;7392357;19;19999;-74
2022/09/15 03:40:44;;;;;;;2.17;0.50;;;;;;;;;;7391341;19;20483;-74
2022/09/15 03:43:10;;;;;;;2.30;0.70;;;;;;;;;;7391744;19;20022;-74
2022/09/15 03:45:36;;;;;;;2.28;0.90;;;;;;;;;;7392991;19;20067;-74
2022/09/15 03:48:04;;;;;;;0.70;0.70;;;;;;;;;;7389906;19;20022;-74
2022/09/15 03:50:30;;;;;;;1.60;0.80;;;;;;;;;;7392985;19;20012;-74
2022/09/15 03:52:55;;;;;;;0.95;0.60;;;;;;;;;;7392734;19;20014;-75
2022/09/15 03:55:20;;;;;;;1.75;0.50;;;;;;;;;;7390703;19;20006;-74
2022/09/15 03:57:46;;;;;;;3.15;0.60;;;;;;;;;;7391948;19;20450;-74
2022/09/15 04:00:12;;;;;;;0.90;0.73;;;;;;;;;;7392217;19;20016;-74
2022/09/15 04:02:38;;;;;;;1.00;0.80;;;;;;;;;;7392432;19;20455;-74
2022/09/15 04:05:03;;;;;;;1.70;0.73;;;;;;;;;;7390972;19;20100;-74
2022/09/15 04:07:29;;;;;;;1.25;0.77;;;;;;;;;;7389123;19;20028;-74
2022/09/15 04:09:54;;;;;;;1.40;0.60;;;;;;;;;;7391072;19;19998;-74
2022/09/15 04:12:19;;;;;;;2.65;1.05;;;;;;;;;;7391131;19;20003;-74
2022/09/15 04:14:45;;;;;;;1.85;0.73;;;;;;;;;;7392703;19;20002;-74
2022/09/15 04:17:10;;;;;;;0.75;0.63;;;;;;;;;;7388758;19;20312;-74
2022/09/15 04:19:36;;;;;;;3.22;0.70;;;;;;;;;;7390192;19;20007;-74
2022/09/15 04:22:01;;;;;;;1.17;0.55;;;;;;;;;;7390220;19;20011;-74
2022/09/15 04:24:27;;;;;;;0.82;0.52;;;;;;;;;;7391651;19;20039;-74
2022/09/15 04:26:52;;;;;;;1.17;0.50;;;;;;;;;;7383326;19;20010;-75
2022/09/15 04:29:18;;;;;;;2.70;0.65;;;;;;;;;;7387504;19;20014;-74
2022/09/15 04:31:44;;;;;;;3.88;0.93;;;;;;;;;;7394323;19;20036;-75
2022/09/15 04:34:10;;;;;;;1.27;0.50;;;;;;;;;;7389624;19;20332;-76
2022/09/15 04:36:35;;;;;;;0.88;0.50;;;;;;;;;;7394696;19;20474;-74
2022/09/15 04:39:00;;;;;;;0.73;0.40;;;;;;;;;;7391472;19;20003;-75
2022/09/15 04:41:27;;;;;;;1.75;0.80;;;;;;;;;;7389556;19;20053;-75
2022/09/15 04:43:52;;;;;;;2.58;0.57;;;;;;;;;;7394453;19;20018;-75
2022/09/15 04:46:17;;;;;;;6.05;0.80;;;;;;;;;;7393764;19;20030;-75
2022/09/15 04:48:44;;;;;;;0.40;0.40;;;;;;;;;;7394197;19;20015;-75
2022/09/15 04:51:13;;;;;;;1.48;0.57;;;;;;;;;;7398716;19;20315;-73
2022/09/15 04:53:40;;;;;;;1.10;0.50;;;;;;;;;;7395610;19;20346;-73
2022/09/15 04:56:10;;;;;;;3.08;0.60;;;;;;;;;;7395062;19;20031;-73
2022/09/15 04:58:37;;;;;;;3.95;0.75;;;;;;;;;;7392588;19;20013;-73
2022/09/15 05:01:14;;;;;;;2.20;0.63;;;;;;;;;;7393438;19;20018;-74
2022/09/15 05:03:41;;;;;;;0.65;0.40;;;;;;;;;;7391709;19;20038;-73
2022/09/15 05:06:09;;;;;;;0.68;0.55;;;;;;;;;;7393240;19;20015;-73
2022/09/15 05:08:35;;;;;;;0.55;0.50;;;;;;;;;;7394984;19;20019;-74
2022/09/15 05:11:03;;;;;;;0.82;0.50;;;;;;;;;;7397866;19;20003;-74
2022/09/15 05:13:29;;;;;;;1.20;0.40;;;;;;;;;;7397563;19;20011;-74
2022/09/15 05:15:54;;;;;;;3.10;0.60;;;;;;;;;;7392032;19;20014;-75
2022/09/15 05:18:19;;;;;;;0.43;0.43;;;;;;;;;;7392939;19;20022;-73
2022/09/15 05:20:45;;;;;;;3.13;0.80;;;;;;;;;;7394856;19;20107;-73
2022/09/15 05:23:11;;;;;;;3.58;0.50;;;;;;;;;;7396378;19;20002;-75
2022/09/15 05:25:37;;;;;;;0.85;0.40;;;;;;;;;;7395046;19;20040;-73
2022/09/15 05:28:03;;;;;;;0.57;0.57;;;;;;;;;;7390715;19;20018;-73
2022/09/15 05:30:28;;;;;;;1.92;0.55;;;;;;;;;;7394772;19;20320;-74
2022/09/15 05:32:55;;;;;;;0.80;0.50;;;;;;;;;;7393363;19;20044;-73
2022/09/15 05:35:22;;;;;;;1.27;0.38;;;;;;;;;;7397175;19;20017;-74
2022/09/15 05:37:48;;;;;;;1.05;0.50;;;;;;;;;;7395614;19;20002;-74
2022/09/15 05:40:14;;;;;;;0.20;0.20;;;;;;;;;;7398182;19;20443;-71
2022/09/15 05:42:39;;;;;;;3.92;0.75;;;;;;;;;;7392536;19;20081;-71
2022/09/15 05:45:05;;;;;;;0.50;0.50;;;;;;;;;;7392933;19;20009;-71
2022/09/15 05:47:30;;;;;;;0.70;0.40;;;;;;;;;;7395133;19;20019;-71
2022/09/15 05:49:56;;;;;;;2.33;0.45;;;;;;;;;;7396289;19;20580;-71
2022/09/15 05:52:21;;;;;;;2.38;0.57;;;;;;;;;;7392446;19;20012;-71
2022/09/15 05:54:46;;;;;;;0.43;0.43;;;;;;;;;;7397184;19;20490;-71
2022/09/15 05:57:12;;;;;;;1.20;0.52;;;;;;;;;;7392784;19;20010;-71
2022/09/15 05:59:38;;;;;;;0.30;0.30;;;;;;;;;;7394556;19;20660;-73
2022/09/15 06:02:03;;;;;;;3.15;0.47;;;;;;;;;;7395836;19;20044;-74
2022/09/15 06:04:29;;;;;;;1.35;0.45;;;;;;;;;;7396561;19;20031;-73
2022/09/15 06:06:54;;;;;;;2.60;0.70;;;;;;;;;;7395532;19;20010;-73
2022/09/15 06:09:19;;;;;;;0.55;0.30;;;;;;;;;;7394851;19;20096;-73
2022/09/15 06:11:45;;;;;;;0.25;0.10;;;;;;;;;;7394864;19;20481;-76
2022/09/15 06:14:12;;;;;;;1.05;0.52;;;;;;;;;;7392603;19;20029;-76
2022/09/15 06:16:38;;;;;;;1.77;0.70;;;;;;;;;;7393651;19;20075;-76
2022/09/15 06:19:04;;;;;;;1.10;0.40;;;;;;;;;;7390729;19;20010;-74
2022/09/15 06:21:30;;;;;;;0.65;0.32;;;;;;;;;;7391176;19;20007;-74
2022/09/15 06:23:58;;;;;;;0.30;0.30;;;;;;;;;;7389001;19;20035;-75
2022/09/15 06:26:25;;;;;;;1.55;0.30;;;;;;;;;;7394245;19;20003;-75
2022/09/15 06:28:51;;;;;;;2.08;0.20;;;;;;;;;;7383028;19;20018;-74
2022/09/15 06:31:17;;;;;;;2.95;0.30;;;;;;;;;;7393577;19;20006;-75
2022/09/15 06:33:54;;;;;;;1.00;0.40;;;;;;;;;;7393444;19;20408;-75
2022/09/15 06:36:21;;;;;;;0.30;0.30;;;;;;;;;;7391460;19;20009;-78
2022/09/15 06:38:47;;;;;;;0.45;0.40;;;;;;;;;;7389493;19;20455;-74
2022/09/15 06:41:13;;;;;;;0.82;0.40;;;;;;;;;;7389323;19;20010;-74
2022/09/15 06:43:38;;;;;;;0.95;0.40;;;;;;;;;;7395212;19;20089;-74
2022/09/15 06:46:08;;;;;;;0.43;0.43;;;;;;;;;;7394273;19;20469;-74
2022/09/15 06:48:35;;;;;;;1.20;0.40;;;;;;;;;;7392166;19;20010;-74
2022/09/15 06:51:01;;;;;;;1.90;0.40;;;;;;;;;;7391285;19;20512;-74
2022/09/15 06:53:30;;;;;;;0.38;0.30;;;;;;;;;;7393247;19;20006;-74
2022/09/15 06:56:04;;;;;;;1.05;0.50;;;;;;;;;;7389157;19;20034;-75
2022/09/15 06:58:31;;;;;;;1.23;0.40;;;;;;;;;;7388130;19;20029;-74
2022/09/15 07:01:04;;;;;;;0.30;0.30;;;;;;;;;;7389672;19;20499;-75
2022/09/15 07:03:30;;;;;;;0.30;0.28;;;;;;;;;;7393407;19;20413;-75
2022/09/15 07:05:55;;;;;;;0.93;0.50;;;;;;;;;;7390326;19;20044;-76
2022/09/15 07:08:21;;;;;;;3.08;0.50;;;;;;;;;;7388243;19;20006;-76
2022/09/15 07:10:46;;;;;;;0.88;0.40;;;;;;;;;;7392017;19;20006;-76
2022/09/15 07:13:11;;;;;;;1.52;0.52;;;;;;;;;;7392414;19;20062;-76
2022/09/15 07:15:38;;;;;;;2.33;0.70;;;;;;;;;;7393900;19;20019;-76
2022/09/15 07:18:04;;;;;;;1.25;0.40;;;;;;;;;;7390954;19;20007;-76
2022/09/15 07:20:29;;;;;;;0.20;0.20;;;;;;;;;;7392952;19;20025;-76
2022/09/15 07:22:54;;;;;;;1.77;0.40;;;;;;;;;;7391119;19;19998;-76
2022/09/15 07:25:20;;;;;;;0.45;0.45;;;;;;;;;;7391065;19;20023;-76
2022/09/15 07:27:45;;;;;;;0.50;0.30;;;;;;;;;;7391207;19;20021;-76
2022/09/15 07:30:12;;;;;;;2.50;0.38;;;;;;;;;;7393947;19;20011;-76
2022/09/15 07:32:38;;;;;;;0.90;0.68;;;;;;;;;;7388554;19;19998;-76
2022/09/15 07:35:04;;;;;;;0.30;0.30;;;;;;;;;;7391910;19;20018;-76
2022/09/15 07:37:31;;;;;;;1.20;0.52;;;;;;;;;;7392141;19;20039;-76
2022/09/15 07:39:56;;;;;;;0.50;0.50;;;;;;;;;;7390435;19;20021;-76
2022/09/15 07:42:21;;;;;;;1.67;0.50;;;;;;;;;;7393066;19;20078;-76
2022/09/15 07:44:47;;;;;;;0.55;0.40;;;;;;;;;;7392218;19;20040;-76
2022/09/15 07:47:12;;;;;;;0.57;0.35;;;;;;;;;;7393365;19;20010;-76
2022/09/15 07:49:37;;;;;;;0.95;0.50;;;;;;;;;;7386260;19;20003;-76
2022/09/15 07:52:03;;;;;;;1.08;0.57;;;;;;;;;;7388343;19;20006;-76
2022/09/15 07:54:28;;;;;;;1.55;0.40;;;;;;;;;;7389030;19;20010;-75
2022/09/15 07:56:53;;;;;;;1.95;0.40;;;;;;;;;;7391213;19;20300;-75
2022/09/15 07:59:18;;;;;;;1.33;0.38;;;;;;;;;;7385785;19;20011;-75
2022/09/15 08:01:44;;;;;;;1.05;0.40;;;;;;;;;;7381971;19;20002;-78
2022/09/15 08:04:09;;;;;;;0.80;0.38;;;;;;;;;;7388580;19;19998;-76
2022/09/15 08:06:35;;;;;;;2.08;0.45;;;;;;;;;;7390962;19;20014;-76
2022/09/15 08:09:01;;;;;;;1.55;0.75;;;;;;;;;;7389012;19;20022;-75
2022/09/15 08:11:28;;;;;;;1.05;0.40;;;;;;;;;;7396634;19;19999;-75
2022/09/15 08:13:54;;;;;;;1.83;0.45;;;;;;;;;;7392864;19;20092;-75
2022/09/15 08:16:21;;;;;;;0.60;0.50;;;;;;;;;;7395118;19;20006;-77
2022/09/15 08:18:47;;;;;;;0.70;0.40;;;;;;;;;;7394636;19;20014;-74
2022/09/15 08:21:15;;;;;;;1.00;0.30;;;;;;;;;;7395855;19;20022;-77
2022/09/15 08:23:41;;;;;;;2.15;0.60;;;;;;;;;;7396748;19;20001;-76
2022/09/15 08:26:08;;;;;;;0.63;0.50;;;;;;;;;;7393309;19;20010;-76
2022/09/15 08:28:34;;;;;;;0.70;0.50;;;;;;;;;;7390913;19;20006;-76
2022/09/15 08:31:02;;;;;;;0.30;0.30;;;;;;;;;;7395097;19;20006;-74
2022/09/15 08:33:28;;;;;;;0.45;0.30;;;;;;;;;;7394005;19;20006;-75
2022/09/15 08:35:54;;;;;;;0.50;0.30;;;;;;;;;;7396414;19;20335;-75
2022/09/15 08:38:22;;;;;;;1.10;0.40;;;;;;;;;;7392467;19;20111;-77
2022/09/15 08:40:58;;;;;;;1.20;0.50;;;;;;;;;;7390910;19;20041;-77
2022/09/15 08:43:31;;;;;;;1.98;0.47;;;;;;;;;;7392585;19;20053;-75
2022/09/15 08:46:03;;;;;;;0.95;0.57;;;;;;;;;;7393654;19;20137;-77
2022/09/15 08:48:35;;;;;;;5.78;0.80;;;;;;;;;;7394174;19;20003;-77
2022/09/15 08:51:10;;;;;;;0.30;0.30;;;;;;;;;;7392246;19;20486;-77
2022/09/15 08:53:48;;;;;;;0.68;0.60;;;;;;;;;;7394623;19;20541;-77
2022/09/15 08:56:16;;;;;;;0.50;0.40;;;;;;;;;;7393493;19;20010;-75
2022/09/15 08:58:44;;;;;;;0.40;0.40;;;;;;;;;;7390698;19;20015;-76
2022/09/15 09:01:10;;;;;;;1.10;0.63;;;;;;;;;;7387349;19;20010;-75
2022/09/15 09:04:12;;;;;;;2.08;0.50;;;;;;;;;;7392244;19;20013;-76
2022/09/15 09:06:56;;;;;;;0.73;0.55;;;;;;;;;;7393339;19;19998;-75
2022/09/15 09:10:07;;;;;;;1.50;0.40;;;;;;;;;;7396152;19;20466;-76
2022/09/15 09:12:52;;;;;;;0.60;0.50;;;;;;;;;;7394418;19;20051;-76
2022/09/15 09:15:27;;;;;;;3.38;0.60;;;;;;;;;;7395678;19;20073;-81
2022/09/15 09:18:15;;;;;;;2.85;0.70;;;;;;;;;;7385268;19;20103;-79
2022/09/15 09:21:08;;;;;;;1.73;0.50;;;;;;;;;;7394049;19;20497;-81
2022/09/15 09:23:53;;;;;;;1.30;0.73;;;;;;;;;;7396628;19;20023;-80
2022/09/15 09:26:18;;;;;;;1.40;0.70;;;;;;;;;;7391764;19;20007;-78
2022/09/15 09:28:58;;;;;;;0.77;0.50;;;;;;;;;;7390109;19;20370;-79
2022/09/15 09:31:24;;;;;;;1.10;0.57;;;;;;;;;;7396266;19;20315;-79
2022/09/15 09:33:59;;;;;;;1.50;0.60;;;;;;;;;;7394819;19;20490;-77
2022/09/15 09:36:25;;;;;;;4.95;0.50;;;;;;;;;;7396583;19;20081;-76
2022/09/15 09:38:51;;;;;;;1.30;0.47;;;;;;;;;;7392353;19;20015;-78
2022/09/15 09:41:26;;;;;;;0.98;0.75;;;;;;;;;;7392708;19;20027;-77
2022/09/15 09:43:54;;;;;;;0.70;0.35;;;;;;;;;;7392739;19;20030;-77
2022/09/15 09:46:20;;;;;;;0.93;0.50;;;;;;;;;;7394636;19;20014;-77
2022/09/15 09:49:01;;;;;;;0.88;0.40;;;;;;;;;;7391320;19;20462;-77
2022/09/15 09:51:37;;;;;;;2.55;0.57;;;;;;;;;;7393100;19;20069;-77
2022/09/15 09:54:19;;;;;;;1.27;0.70;;;;;;;;;;7393830;19;20011;-77
2022/09/15 09:56:49;;;;;;;0.43;0.43;;;;;;;;;;7393258;19;20013;-77
2022/09/15 09:59:44;;;;;;;1.02;0.60;;;;;;;;;;7386529;19;20044;-76
2022/09/15 10:02:10;;;;;;;1.02;0.50;;;;;;;;;;7392258;19;20030;-76
2022/09/15 10:04:46;;;;;;;0.57;0.40;;;;;;;;;;7394869;19;20408;-76
2022/09/15 10:07:13;;;;;;;1.77;0.38;;;;;;;;;;7392877;19;20010;-76
2022/09/15 10:09:48;;;;;;;2.08;0.43;;;;;;;;;;7388106;19;20007;-76
2022/09/15 10:12:20;;;;;;;0.85;0.30;;;;;;;;;;7395728;19;20048;-75
2022/09/15 10:14:51;;;;;;;0.38;0.30;;;;;;;;;;7394031;19;20006;-75
2022/09/15 10:17:22;;;;;;;0.40;0.40;;;;;;;;;;7393062;19;20078;-75
2022/09/15 10:19:52;;;;;;;0.82;0.40;;;;;;;;;;7395150;19;20026;-76
2022/09/15 10:22:34;;;;;;;1.10;0.60;;;;;;;;;;7392906;19;20014;-75
2022/09/15 10:25:02;;;;;;;0.88;0.30;;;;;;;;;;7394361;19;20122;-77
2022/09/15 10:27:27;;;;;;;0.88;0.50;;;;;;;;;;7391624;19;20023;-76
2022/09/15 10:29:53;;;;;;;4.53;0.60;;;;;;;;;;7388068;19;20027;-75
2022/09/15 10:32:21;;;;;;;1.63;0.50;;;;;;;;;;7389348;19;20017;-75
2022/09/15 10:34:47;;;;;;;0.30;0.30;;;;;;;;;;7393198;19;20035;-76
2022/09/15 10:37:27;;;;;;;0.85;0.47;;;;;;;;;;7387235;19;20046;-76
2022/09/15 10:39:59;;;;;;;0.50;0.32;;;;;;;;;;7393885;19;20010;-76
2022/09/15 10:43:05;;;;;;;1.25;0.50;;;;;;;;;;7393911;19;20010;-76
2022/09/15 10:45:38;;;;;;;1.73;0.40;;;;;;;;;;7380848;19;20014;-76
2022/09/15 10:48:18;;;;;;;1.10;0.43;;;;;;;;;;7391270;19;20018;-76
2022/09/15 10:50:50;;;;;;;0.80;0.45;;;;;;;;;;7393399;19;20078;-76
2022/09/15 10:53:30;;;;;;;0.60;0.40;;;;;;;;;;7390166;19;20014;-77
2022/09/15 10:56:19;;;;;;;2.30;0.40;;;;;;;;;;7393088;19;20003;-77
2022/09/15 10:59:20;;;;;;;1.35;0.32;;;;;;;;;;7389056;19;20014;-76
2022/09/15 11:01:48;;;;;;;1.00;0.40;;;;;;;;;;7380664;19;20086;-73
2022/09/15 11:04:40;;;;;;;0.25;0.20;;;;;;;;;;7389354;19;20273;-74
2022/09/15 11:07:11;;;;;;;0.50;0.43;;;;;;;;;;7389925;19;20029;-76
2022/09/15 11:09:46;;;;;;;3.30;0.60;;;;;;;;;;7392910;19;20006;-76
2022/09/15 11:12:33;;;;;;;1.35;0.40;;;;;;;;;;7389600;19;20015;-75
2022/09/15 11:15:42;;;;;;;0.65;0.32;;;;;;;;;;7393125;19;20017;-75
2022/09/15 11:18:21;;;;;;;0.30;0.30;;;;;;;;;;7388648;19;20010;-74
2022/09/15 11:20:59;;;;;;;1.42;0.40;;;;;;;;;;7391035;19;20049;-75
2022/09/15 11:24:10;;;;;;;0.77;0.20;;;;;;;;;;7390820;19;20010;-75
2022/09/15 11:26:56;;;;;;;0.68;0.43;;;;;;;;;;7391549;19;20046;-75
2022/09/15 11:29:28;;;;;;;0.95;0.30;;;;;;;;;;7389171;19;20388;-75
2022/09/15 11:32:09;;;;;;;0.88;0.50;;;;;;;;;;7389106;19;20006;-75
2022/09/15 11:34:44;;;;;;;1.00;0.35;;;;;;;;;;7387835;19;20467;-75
2022/09/15 11:37:24;;;;;;;;;;;;;;;;;;7390716;19;20446;-75
2022/09/15 11:39:59;;;;;;;0.50;0.28;;;;;;;;;;7390872;19;19926;-74
2022/09/15 11:43:02;;;;;;;0.40;0.40;;;;;;;;;;7391044;19;20014;-75
2022/09/15 11:45:33;;;;;;;0.85;0.30;;;;;;;;;;7385549;19;20102;-76
2022/09/15 11:48:15;;;;;;;0.73;0.30;;;;;;;;;;7387740;19;20010;-76
2022/09/15 11:50:45;;;;;;;1.13;0.55;;;;;;;;;;7388560;19;20010;-76
2022/09/15 11:53:35;;;;;;;0.80;0.38;;;;;;;;;;7390982;19;20034;-76
2022/09/15 11:56:13;;;;;;;2.40;0.50;;;;;;;;;;7388332;19;20038;-80
2022/09/15 11:59:05;;;;;;;0.50;0.50;;;;;;;;;;7385528;19;20021;-78
2022/09/15 12:01:40;;;;;;;0.47;0.30;;;;;;;;;;7387462;19;20345;-79
2022/09/15 12:04:16;;;;;;;1.52;0.50;;;;;;;;;;7391726;19;20015;-78
2022/09/15 12:06:47;;;;;;;0.40;0.38;;;;;;;;;;7383231;19;20466;-79
2022/09/15 12:09:18;;;;;;;1.40;0.52;;;;;;;;;;7388059;19;20023;-80
2022/09/15 12:11:50;;;;;;;0.85;0.45;;;;;;;;;;7389030;19;20014;-80
2022/09/15 12:14:33;;;;;;;1.15;0.52;;;;;;;;;;7388936;19;20021;-80
2022/09/15 12:17:00;;;;;;;1.00;0.60;;;;;;;;;;7391394;19;20319;-78
2022/09/15 12:19:32;;;;;;;0.90;0.52;;;;;;;;;;7386369;19;20018;-78
2022/09/15 12:22:05;;;;;;;1.25;0.40;;;;;;;;;;7386030;19;20011;-82
2022/09/15 12:24:42;;;;;;;0.63;0.50;;;;;;;;;;7384282;19;20028;-78
2022/09/15 12:27:15;;;;;;;0.75;0.47;;;;;;;;;;7387626;19;19999;-80
2022/09/15 12:29:50;;;;;;;3.58;0.47;;;;;;;;;;7387802;19;20019;-73
2022/09/15 12:32:27;;;;;;;2.17;0.70;;;;;;;;;;7391195;19;20003;-78
2022/09/15 12:34:55;;;;;;;0.90;0.60;;;;;;;;;;7389407;19;20014;-80
2022/09/15 12:37:23;;;;;;;1.00;0.47;;;;;;;;;;7388239;19;20332;-78
2022/09/15 12:39:49;;;;;;;0.55;0.50;;;;;;;;;;7389804;19;20014;-79
2022/09/15 12:42:30;;;;;;;1.60;0.60;;;;;;;;;;7389882;19;20014;-79
2022/09/15 12:45:19;;;;;;;0.90;0.60;;;;;;;;;;7389689;19;20010;-79
2022/09/15 12:47:53;;;;;;;0.50;0.50;;;;;;;;;;7389591;19;20110;-79
2022/09/15 12:50:18;;;;;;;1.38;0.60;;;;;;;;;;7389854;19;20014;-79
2022/09/15 12:52:52;;;;;;;0.65;0.40;;;;;;;;;;7387695;19;20134;-79
2022/09/15 12:55:22;;;;;;;3.75;0.57;;;;;;;;;;7396195;19;20017;-79
2022/09/15 12:57:53;;;;;;;1.63;0.60;;;;;;;;;;7398408;19;20026;-78
2022/09/15 13:00:43;;;;;;;0.70;0.40;;;;;;;;;;7397436;19;20007;-79
2022/09/15 13:03:42;;;;;;;1.67;0.70;;;;;;;;;;7395036;19;20015;-79
2022/09/15 13:06:27;;;;;;;0.98;0.63;;;;;;;;;;7389520;19;20459;-78
2022/09/15 13:09:05;;;;;;;0.70;0.50;;;;;;;;;;7386621;19;20097;-78
2022/09/15 13:11:33;;;;;;;0.88;0.60;;;;;;;;;;7397906;19;20038;-79
2022/09/15 13:14:09;;;;;;;0.57;0.57;;;;;;;;;;7395664;19;20007;-79
2022/09/15 13:16:42;;;;;;;0.75;0.50;;;;;;;;;;7393020;19;20799;-81
2022/09/15 13:19:34;;;;;;;0.40;0.40;;;;;;;;;;7391688;19;20013;-79
2022/09/15 13:22:18;;;;;;;2.75;0.65;;;;;;;;;;7396692;19;20070;-79
2022/09/15 13:25:16;;;;;;;1.13;0.60;;;;;;;;;;7393655;19;20010;-79
2022/09/15 13:27:53;;;;;;;2.03;0.50;;;;;;;;;;7391793;19;20501;-80
2022/09/15 13:30:58;;;;;;;0.52;0.45;;;;;;;;;;7393314;19;20009;-78
2022/09/15 13:33:53;;;;;;;1.60;0.68;;;;;;;;;;7396141;19;19998;-84
2022/09/15 13:36:30;;;;;;;1.50;0.50;;;;;;;;;;7398100;19;20021;-81
2022/09/15 13:39:35;;;;;;;0.77;0.70;;;;;;;;;;7396677;19;20123;-82
2022/09/15 13:42:18;;;;;;;0.43;0.38;;;;;;;;;;7392659;19;20006;-81
2022/09/15 13:44:51;;;;;;;2.05;0.57;;;;;;;;;;7396219;19;20039;-81
2022/09/15 13:47:45;;;;;;;1.27;0.50;;;;;;;;;;7392787;19;20031;-80
2022/09/15 13:50:14;;;;;;;0.82;0.40;;;;;;;;;;7397147;19;19995;-80
2022/09/15 13:52:54;;;;;;;0.70;0.40;;;;;;;;;;7395273;19;20014;-79
2022/09/15 13:55:25;;;;;;;1.85;0.70;;;;;;;;;;7395104;19;20010;-82
2022/09/15 13:57:52;;;;;;;0.43;0.30;;;;;;;;;;7388101;19;20451;-79
2022/09/15 14:00:25;;;;;;;1.52;0.70;;;;;;;;;;7390260;19;20358;-84
2022/09/15 14:02:55;;;;;;;0.55;0.40;;;;;;;;;;7390404;19;20010;-81
2022/09/15 14:05:22;;;;;;;0.63;0.40;;;;;;;;;;7390732;19;20016;-83
2022/09/15 14:07:51;;;;;;;2.22;0.30;;;;;;;;;;7390748;19;20335;-89
2022/09/15 14:10:21;;;;;;;1.02;0.40;;;;;;;;;;7390608;19;20470;-77
2022/09/15 14:12:46;;;;;;;2.70;0.80;;;;;;;;;;7395422;19;20476;-76
2022/09/15 14:15:18;;;;;;;1.23;0.55;;;;;;;;;;7391857;19;20010;-77
2022/09/15 14:17:44;;;;;;;0.80;0.40;;;;;;;;;;7395097;19;20010;-77
2022/09/15 14:20:29;;;;;;;1.20;0.60;;;;;;;;;;7392203;19;19999;-77
2022/09/15 14:22:54;;;;;;;5.50;0.40;;;;;;;;;;7397227;19;20019;-76
2022/09/15 14:25:20;;;;;;;4.10;0.55;;;;;;;;;;7393909;19;20002;-77
2022/09/15 14:27:52;;;;;;;3.65;0.47;;;;;;;;;;7394754;19;19999;-79
2022/09/15 14:30:21;;;;;;;1.10;0.40;;;;;;;;;;7394901;19;20014;-78
2022/09/15 14:32:51;;;;;;;2.28;0.52;;;;;;;;;;7395855;19;20037;-77
2022/09/15 14:35:21;;;;;;;1.55;0.85;;;;;;;;;;7391715;19;20018;-77
2022/09/15 14:37:49;;;;;;;0.75;0.35;;;;;;;;;;7395399;19;19999;-77
2022/09/15 14:40:19;;;;;;;0.38;0.30;;;;;;;;;;7394293;19;19999;-77
2022/09/15 14:42:45;;;;;;;4.38;1.27;;;;;;;;;;7395105;19;20026;-77
2022/09/15 14:45:10;;;;;;;1.02;0.70;;;;;;;;;;7390686;19;20002;-77
2022/09/15 14:47:38;;;;;;;1.50;0.85;;;;;;;;;;7393061;19;20007;-76
2022/09/15 14:50:10;;;;;;;1.08;0.80;;;;;;;;;;7391531;19;20093;-76
2022/09/15 14:52:42;;;;;;;0.50;0.50;;;;;;;;;;7393737;19;20027;-75
2022/09/15 14:55:36;;;;;;;1.80;0.52;;;;;;;;;;7390442;19;20021;-76
2022/09/15 14:58:04;;;;;;;0.80;0.40;;;;;;;;;;7388743;19;20368;-76
2022/09/15 15:00:38;;;;;;;0.68;0.68;;;;;;;;;;7389631;19;20026;-75
2022/09/15 15:03:26;;;;;;;0.68;0.60;;;;;;;;;;7385294;19;19998;-76
2022/09/15 15:05:58;;;;;;;0.20;0.20;;;;;;;;;;7382084;19;20014;-76
2022/09/15 15:08:39;;;;;;;1.85;1.17;;;;;;;;;;7386045;19;20011;-76
2022/09/15 15:11:07;;;;;;;1.05;0.60;;;;;;;;;;7389682;19;20077;-76